Liberty, KS

8:48 PM CDT on March 27, 2015 (GMT -0500)
Coffeyville Municipal | | Change Station
CLOSE
Current Station
Airport
Location: Coffeyville,
Elevation: 751 ft
Nearby Weather Stations

Elev 751 ft 37.09 °N, 95.57 °W | Updated 56 minutes ago

Overcast
Overcast
49 °F
Feels Like 49 °F
N
4
Wind Variable Wind from NE

Today
High -- | Low -- °F
--% Chance of Precip.
Yesterday
High -- | Low -- °F
Precip. -- in
7:15 AM 7:40 PM
First Quarter, 57% visible
Pressure 30.16 in
Visibility 10.0 miles
Clouds Overcast 7000 ft
Dew Point 28 °F
Humidity 44%
Rainfall 0.00 in
Snow Depth Not available.
UV 0 out of 12
Pollen 9.60 out of 12
Air Quality Not available.
Flu Activity Not available.
METAR KCFV 280052Z AUTO 05003KT 10SM OVC070 09/M02 A3015 RMK AO2 SLP211 T00941022

More Conditions Fewer Conditions

Pressure 30.16 in
Visibility 10.0 miles
Clouds Overcast 7000 ft
Dew Point 28 °F
Humidity 44%
Rainfall 0.00 in
Snow Depth Not available.
UV 0 out of 12
Pollen 9.60 out of 12
Air Quality Not available.
Flu Activity Not available.
METAR KCFV 280052Z AUTO 05003KT 10SM OVC070 09/M02 A3015 RMK AO2 SLP211 T00941022

More Conditions Fewer Conditions

10-Day Weather Forecast

Almanac

Astronomy

Mar. 27, 2015 Rise Set
Actual Time
Civil Twilight
Nautical Twilight
Astronomical Twilight
Moon
Length of Visible Light
Length of Day
Tomorrow will be .
, % of the Moon is Illuminated

Today's Extremes

State Highs State Lows

Community

WunderPhotos

Upload Photos

1,808,911 photos uploaded!

WunderBlogs® & News

Nearby

Air Quality

  Air Quality AQ Index Pollutant
Not available.

Snow Depth

Station Depth Elevation

Earthquake Activity

City Distance Mag. Time & Date
Minimum magnitude displayed is 2.5.

Coastal Water Temperatures

Place Temperature

Stations

Nearby Weather Stations

Station Location Temp. Windchill Dew Point Humidity Wind Precip. Elev Updated Type